Time;durP1;ratioP1;P1;durP2;ratioP2;P2;SDS_P1;SDS_P2;PMS_P1;PMS_P2;Temp;Humidity;BMP_temperature;BMP_pressure;BME280_temperature;BME280_humidity;BME280_pressure;Samples;Min_cycle;Max_cycle;Signal;HPM_P1;HPM_P2
2023/09/08 09:05:44;;;;;;;18.00;4.57;;;23.30;93.00;;;;;;5088550;27;21305;-50
2023/09/08 09:08:29;;;;;;;12.15;3.85;;;23.40;92.90;;;;;;5092998;28;20047;-48
2023/09/08 09:11:15;;;;;;;8.75;4.13;;;23.40;92.60;;;;;;5095252;28;20090;-45
2023/09/08 09:13:59;;;;;;;11.27;3.78;;;23.50;92.40;;;;;;5095472;28;20047;-44
2023/09/08 09:16:44;;;;;;;12.15;4.05;;;23.50;92.20;;;;;;5094122;28;20063;-45
2023/09/08 09:19:31;;;;;;;9.18;3.92;;;23.50;92.30;;;;;;5123619;27;20579;-42
2023/09/08 09:22:21;;;;;;;14.55;4.05;;;23.50;92.50;;;;;;5093806;28;20407;-48
2023/09/08 09:25:07;;;;;;;10.50;3.72;;;23.50;92.10;;;;;;5093090;28;20502;-42
2023/09/08 09:27:53;;;;;;;9.90;3.88;;;23.60;92.60;;;;;;5095232;28;20071;-45
2023/09/08 09:32:45;;;;;;;8.77;3.55;;;23.60;92.30;;;;;;5095138;27;20412;-45
2023/09/08 09:36:00;;;;;;;10.13;3.30;;;23.70;91.90;;;;;;5097164;28;20502;-48
2023/09/08 09:38:44;;;;;;;9.18;3.60;;;23.80;92.10;;;;;;5090118;28;20078;-47
2023/09/08 09:41:30;;;;;;;7.15;3.70;;;23.80;91.60;;;;;;5095488;28;20042;-43
2023/09/08 09:44:17;;;;;;;11.13;3.17;;;23.80;91.60;;;;;;5092294;28;20067;-47
2023/09/08 09:47:03;;;;;;;11.10;3.17;;;23.80;92.00;;;;;;5083871;27;64759;-45
2023/09/08 09:49:49;;;;;;;4.30;3.20;;;23.80;92.20;;;;;;5074120;28;20464;-47
2023/09/08 09:52:39;;;;;;;7.78;3.25;;;23.80;92.20;;;;;;5034663;28;71634;-45
2023/09/08 09:55:24;;;;;;;4.40;3.17;;;23.90;91.40;;;;;;5046428;28;20046;-49
2023/09/08 10:08:00;;;;;;;7.07;3.97;;;24.00;91.20;;;;;;5081494;27;20427;-43
2023/09/08 10:10:28;;;;;;;7.72;3.15;;;24.20;94.60;;;;;;5036692;28;20493;-36
2023/09/08 10:12:57;;;;;;;9.10;3.20;;;24.70;90.40;;;;;;5043923;28;20112;-36
2023/09/08 10:15:24;;;;;;;4.53;3.05;;;24.90;89.20;;;;;;5045216;28;20882;-35
2023/09/08 10:17:55;;;;;;;5.40;2.97;;;25.10;87.70;;;;;;5044000;28;20397;-36
2023/09/08 10:20:23;;;;;;;4.15;3.15;;;25.10;86.80;;;;;;5041334;28;20033;-36
2023/09/08 10:22:55;;;;;;;6.45;3.25;;;25.10;86.90;;;;;;5041791;28;20025;-35
2023/09/08 10:25:24;;;;;;;5.13;3.15;;;25.10;87.00;;;;;;5043471;28;20037;-36
2023/09/08 10:27:50;;;;;;;4.50;2.80;;;25.10;87.00;;;;;;5045069;28;20037;-35
2023/09/08 10:30:20;;;;;;;4.22;2.67;;;25.00;86.50;;;;;;5042956;28;20025;-36
2023/09/08 10:32:49;;;;;;;5.70;2.92;;;25.00;86.50;;;;;;5042271;28;20462;-36
2023/09/08 10:35:17;;;;;;;3.50;2.92;;;24.90;87.00;;;;;;5042929;28;20025;-36
2023/09/08 10:37:43;;;;;;;4.32;2.90;;;24.90;87.00;;;;;;5044388;28;20033;-35
2023/09/08 10:40:33;;;;;;;6.45;2.88;;;24.90;87.10;;;;;;5047404;28;20044;-33
2023/09/08 10:43:11;;;;;;;3.15;2.25;;;25.00;87.30;;;;;;5046428;28;20059;-33
2023/09/08 10:45:39;;;;;;;3.25;2.75;;;25.00;87.20;;;;;;5046361;28;20029;-33
2023/09/08 10:48:06;;;;;;;3.85;2.83;;;25.00;87.60;;;;;;5047750;28;20104;-33
2023/09/08 10:50:38;;;;;;;;;;;25.00;88.00;;;;;;5048106;28;20021;-33
2023/09/08 10:53:14;;;;;;;4.93;2.90;;;25.00;87.20;;;;;;5063013;28;19915;-33
2023/09/08 10:55:47;;;;;;;3.00;2.67;;;25.00;87.60;;;;;;5049517;28;20366;-33
2023/09/08 10:58:35;;;;;;;2.72;2.40;;;24.90;88.20;;;;;;5043548;28;20033;-33
2023/09/08 11:01:02;;;;;;;4.22;2.67;;;24.90;88.10;;;;;;5042021;28;20041;-33
2023/09/08 11:07:00;;;;;;;6.32;2.95;;;24.40;90.80;;;;;;5052805;28;20388;-73
2023/09/08 11:09:26;;;;;;;6.80;3.10;;;23.60;92.10;;;;;;5050208;28;20540;-73
2023/09/08 11:11:52;;;;;;;4.95;2.83;;;23.10;93.40;;;;;;5057900;28;20088;-74
2023/09/08 11:14:17;;;;;;;6.72;2.90;;;22.70;94.40;;;;;;5060087;28;20060;-72
2023/09/08 11:16:43;;;;;;;3.83;3.03;;;22.50;95.20;;;;;;5059375;28;20024;-74
2023/09/08 11:19:10;;;;;;;8.55;3.60;;;22.40;95.80;;;;;;5059403;28;20441;-75
2023/09/08 11:21:36;;;;;;;4.03;2.90;;;22.30;96.10;;;;;;5056127;28;20474;-75
2023/09/08 11:24:04;;;;;;;4.13;2.58;;;22.20;96.40;;;;;;5057657;28;20039;-74
2023/09/08 11:26:34;;;;;;;4.22;2.78;;;22.20;96.60;;;;;;5059390;28;20026;-74
2023/09/08 11:29:00;;;;;;;6.32;3.10;;;22.10;96.70;;;;;;5053148;28;20104;-75
2023/09/08 11:31:26;;;;;;;3.72;3.35;;;22.10;96.80;;;;;;5052190;28;20112;-74
2023/09/08 11:33:55;;;;;;;5.07;3.00;;;22.10;96.90;;;;;;5052801;28;20032;-74
2023/09/08 11:36:21;;;;;;;3.88;2.67;;;22.10;97.00;;;;;;5057431;28;20033;-74
2023/09/08 11:38:46;;;;;;;4.30;2.75;;;22.10;97.10;;;;;;5058894;28;20104;-74
2023/09/08 11:41:13;;;;;;;3.20;2.70;;;22.10;97.10;;;;;;5061598;28;20079;-75
2023/09/08 11:43:38;;;;;;;4.72;3.05;;;22.00;97.10;;;;;;5057936;28;20029;-74
2023/09/08 11:46:04;;;;;;;7.25;3.05;;;22.00;97.20;;;;;;5063680;28;20039;-74
2023/09/08 11:48:31;;;;;;;3.10;2.72;;;22.00;97.20;;;;;;5062255;28;20070;-74
2023/09/08 11:50:57;;;;;;;6.27;3.63;;;22.00;97.30;;;;;;5063021;28;20028;-74
2023/09/08 11:53:23;;;;;;;6.22;2.88;;;22.00;97.50;;;;;;5063315;28;20033;-73
2023/09/08 11:55:49;;;;;;;3.08;2.78;;;22.00;97.50;;;;;;5060115;28;20041;-74
2023/09/08 11:58:16;;;;;;;3.53;2.42;;;22.00;97.50;;;;;;5058098;28;20028;-73
2023/09/08 12:00:43;;;;;;;4.35;2.90;;;22.00;97.50;;;;;;5057030;28;20057;-73
2023/09/08 12:03:13;;;;;;;6.50;3.10;;;22.00;97.70;;;;;;5055397;28;20105;-73
2023/09/08 12:05:40;;;;;;;6.80;3.05;;;22.10;97.60;;;;;;5056056;28;20049;-73
2023/09/08 12:08:06;;;;;;;9.32;3.42;;;22.00;97.70;;;;;;5058613;28;20020;-72
2023/09/08 12:10:41;;;;;;;3.33;2.50;;;22.10;97.10;;;;;;5064097;28;20022;-72
2023/09/08 12:13:08;;;;;;;3.63;2.50;;;22.10;97.00;;;;;;5063988;28;20032;-72
2023/09/08 12:15:35;;;;;;;;;;;22.10;96.80;;;;;;5060345;28;20021;-73
2023/09/08 12:18:11;;;;;;;5.65;2.80;;;22.00;96.60;;;;;;5050799;28;19915;-73
2023/09/08 12:20:39;;;;;;;9.98;2.63;;;22.10;96.60;;;;;;5046233;28;20075;-73
2023/09/08 12:23:25;;;;;;;;;;;22.10;96.50;;;;;;5040569;28;20076;-72
2023/09/08 12:25:52;;;;;;;8.02;2.90;;;22.10;96.40;;;;;;5041865;28;19998;-73
2023/09/08 12:28:20;;;;;;;4.32;2.75;;;22.10;96.40;;;;;;5044740;28;20021;-72
2023/09/08 12:30:46;;;;;;;6.15;2.80;;;22.10;96.30;;;;;;5040941;28;20032;-74
2023/09/08 12:33:14;;;;;;;18.40;2.83;;;22.10;96.30;;;;;;5050629;28;20033;-75
2023/09/08 12:35:44;;;;;;;9.18;2.80;;;22.10;96.10;;;;;;5049687;28;20083;-74
2023/09/08 12:38:09;;;;;;;6.10;3.05;;;22.10;95.90;;;;;;5043028;28;20036;-74
2023/09/08 12:40:37;;;;;;;3.55;2.95;;;22.10;95.90;;;;;;5048910;28;20042;-75
2023/09/08 12:43:04;;;;;;;5.90;2.53;;;22.10;95.90;;;;;;5023226;28;20045;-75
2023/09/08 12:45:30;;;;;;;4.20;2.25;;;22.10;95.80;;;;;;5010536;28;20021;-75
2023/09/08 12:47:59;;;;;;;3.40;2.90;;;22.10;95.80;;;;;;5007766;28;20520;-75
2023/09/08 12:50:28;;;;;;;4.60;2.70;;;22.10;95.80;;;;;;5009303;28;20389;-75
2023/09/08 12:52:53;;;;;;;7.25;2.85;;;22.10;95.80;;;;;;5010724;28;20509;-75
2023/09/08 12:55:20;;;;;;;5.18;2.95;;;22.10;95.70;;;;;;5011754;28;20041;-75
2023/09/08 12:57:46;;;;;;;6.30;3.00;;;22.20;95.80;;;;;;5004521;28;20038;-75
2023/09/08 13:00:13;;;;;;;3.03;2.67;;;22.10;95.60;;;;;;5009335;28;20427;-75
2023/09/08 13:02:40;;;;;;;5.75;2.88;;;22.10;95.60;;;;;;5004248;28;20275;-75
2023/09/08 13:05:06;;;;;;;3.90;2.70;;;22.20;95.60;;;;;;5011554;28;20049;-75
2023/09/08 13:07:32;;;;;;;4.82;2.83;;;22.20;95.60;;;;;;5012343;28;20027;-75
2023/09/08 13:09:57;;;;;;;2.88;2.40;;;22.20;95.60;;;;;;5008781;28;20488;-73
2023/09/08 13:12:23;;;;;;;3.38;2.42;;;22.20;95.70;;;;;;5007863;28;20037;-74
2023/09/08 13:14:49;;;;;;;4.55;2.80;;;22.20;95.50;;;;;;5003782;28;20071;-74
2023/09/08 13:17:17;;;;;;;5.30;2.20;;;22.20;95.60;;;;;;5003415;28;20065;-76
2023/09/08 13:19:44;;;;;;;3.53;2.80;;;22.20;95.50;;;;;;5007059;28;20088;-75
2023/09/08 13:22:10;;;;;;;4.88;2.97;;;22.20;95.50;;;;;;5008458;28;20371;-75
2023/09/08 13:24:37;;;;;;;3.55;2.65;;;22.20;95.40;;;;;;5005839;28;20026;-75
2023/09/08 13:27:03;;;;;;;4.53;2.50;;;22.20;95.40;;;;;;5002065;28;20026;-75
2023/09/08 13:29:29;;;;;;;5.45;2.80;;;22.20;95.40;;;;;;5009141;28;20075;-76
2023/09/08 13:31:55;;;;;;;4.35;2.42;;;22.20;95.30;;;;;;5007096;28;20478;-76
2023/09/08 13:34:24;;;;;;;3.03;2.25;;;22.30;95.30;;;;;;5019554;28;20160;-75
2023/09/08 13:36:50;;;;;;;3.92;2.70;;;22.20;95.20;;;;;;5007264;28;20392;-76
2023/09/08 13:39:15;;;;;;;3.22;2.42;;;22.30;95.30;;;;;;5005713;28;20045;-77
2023/09/08 13:41:51;;;;;;;3.20;2.75;;;22.20;95.20;;;;;;5006137;28;20556;-76
2023/09/08 13:44:21;;;;;;;2.78;2.55;;;22.20;95.30;;;;;;5009812;28;20453;-78
2023/09/08 13:46:47;;;;;;;3.50;2.58;;;22.30;95.40;;;;;;5003224;28;20034;-76
2023/09/08 13:49:14;;;;;;;4.80;2.50;;;22.30;95.30;;;;;;5002922;28;20049;-75
2023/09/08 13:51:40;;;;;;;3.70;2.47;;;22.30;95.30;;;;;;5005857;28;20026;-75
2023/09/08 13:54:06;;;;;;;3.40;2.70;;;22.30;95.40;;;;;;5002227;28;20026;-76
2023/09/08 13:56:32;;;;;;;3.17;2.33;;;22.30;95.20;;;;;;5003993;28;20030;-75
2023/09/08 13:58:58;;;;;;;3.60;2.60;;;22.30;95.40;;;;;;5006230;28;20052;-75
2023/09/08 14:01:24;;;;;;;5.22;2.70;;;22.30;95.40;;;;;;5005789;28;20398;-73
2023/09/08 14:03:51;;;;;;;4.40;2.63;;;22.30;95.50;;;;;;5004423;28;20497;-74
2023/09/08 14:06:18;;;;;;;6.43;2.10;;;22.30;95.60;;;;;;5007118;28;20494;-73
2023/09/08 14:08:44;;;;;;;4.15;2.42;;;22.30;95.50;;;;;;5011924;28;20026;-73
2023/09/08 14:11:12;;;;;;;3.30;2.40;;;22.30;95.60;;;;;;5003484;28;20018;-74
2023/09/08 14:13:37;;;;;;;;;;;22.30;95.50;;;;;;5005531;28;20026;-74
2023/09/08 14:16:03;;;;;;;3.35;2.15;;;22.30;95.60;;;;;;5010378;28;19929;-75
2023/09/08 14:18:29;;;;;;;8.30;2.97;;;22.30;95.50;;;;;;5007361;28;20053;-75
2023/09/08 14:20:55;;;;;;;3.45;2.58;;;22.30;95.50;;;;;;5017401;28;20033;-75
2023/09/08 14:23:21;;;;;;;4.65;2.47;;;22.40;95.50;;;;;;5013614;28;20030;-74
2023/09/08 14:25:46;;;;;;;2.78;2.33;;;22.40;95.50;;;;;;5004199;28;20081;-74
2023/09/08 14:28:12;;;;;;;4.28;2.45;;;22.40;95.40;;;;;;5006088;28;20057;-73
2023/09/08 14:30:40;;;;;;;3.67;2.70;;;22.30;95.40;;;;;;5006402;28;20077;-74
2023/09/08 14:33:06;;;;;;;3.88;3.15;;;22.40;95.40;;;;;;5007738;28;20022;-73
2023/09/08 14:35:32;;;;;;;4.78;2.95;;;22.30;95.40;;;;;;5000253;28;20037;-74
2023/09/08 14:37:58;;;;;;;3.30;2.35;;;22.40;95.40;;;;;;4999595;28;20030;-75
2023/09/08 14:40:23;;;;;;;4.63;2.20;;;22.40;95.40;;;;;;5008407;28;20026;-75
2023/09/08 14:42:49;;;;;;;2.88;2.20;;;22.40;95.30;;;;;;5009851;28;20086;-75
2023/09/08 14:45:15;;;;;;;4.50;2.88;;;22.40;95.30;;;;;;5005215;28;20077;-75
2023/09/08 14:47:41;;;;;;;3.65;2.22;;;22.40;95.20;;;;;;5007342;28;20057;-75
2023/09/08 14:50:07;;;;;;;2.78;2.20;;;22.40;95.30;;;;;;5007738;28;20057;-74
2023/09/08 14:52:33;;;;;;;4.10;2.72;;;22.40;95.20;;;;;;5006205;28;20120;-75
2023/09/08 14:54:58;;;;;;;5.88;2.55;;;22.40;95.10;;;;;;4993084;28;20113;-75
2023/09/08 14:57:24;;;;;;;3.35;2.60;;;22.40;95.30;;;;;;5016110;28;20157;-74
2023/09/08 14:59:54;;;;;;;6.15;2.28;;;22.40;95.40;;;;;;4999704;28;20056;-74
2023/09/08 15:02:19;;;;;;;3.95;2.45;;;22.40;95.50;;;;;;5008629;28;20438;-74
2023/09/08 15:04:45;;;;;;;3.05;2.53;;;22.40;95.60;;;;;;5005931;28;20030;-75
2023/09/08 15:07:11;;;;;;;4.18;2.60;;;22.40;95.70;;;;;;5002656;28;20018;-74
2023/09/08 15:09:36;;;;;;;2.78;2.15;;;22.50;95.80;;;;;;5010674;28;20026;-75
2023/09/08 15:12:02;;;;;;;4.00;2.53;;;22.50;95.80;;;;;;5009614;28;20583;-75
2023/09/08 15:14:28;;;;;;;5.13;2.47;;;22.50;95.80;;;;;;5010746;28;20429;-75
2023/09/08 15:16:54;;;;;;;3.55;2.60;;;22.40;95.90;;;;;;5003414;28;20065;-74
2023/09/08 15:19:19;;;;;;;5.18;2.70;;;22.50;95.90;;;;;;5003217;28;20033;-75
2023/09/08 15:21:45;;;;;;;5.00;2.70;;;22.50;95.90;;;;;;5003806;28;20038;-74
2023/09/08 15:24:11;;;;;;;2.88;2.15;;;22.50;95.90;;;;;;5008770;28;20042;-75
2023/09/08 15:26:37;;;;;;;2.90;2.13;;;22.50;95.80;;;;;;5002921;28;20025;-75
2023/09/08 15:29:04;;;;;;;4.38;2.67;;;22.50;95.70;;;;;;5018436;28;20937;-74
2023/09/08 15:31:29;;;;;;;3.45;2.38;;;22.50;95.60;;;;;;5007368;28;20053;-75
2023/09/08 15:33:55;;;;;;;6.93;2.25;;;22.50;95.70;;;;;;5004265;28;20030;-75
2023/09/08 15:36:20;;;;;;;7.70;3.05;;;22.50;95.80;;;;;;5010330;28;20113;-74
2023/09/08 15:38:46;;;;;;;3.55;2.35;;;22.50;95.80;;;;;;5008129;28;20783;-74
2023/09/08 15:41:17;;;;;;;2.47;2.20;;;22.50;96.20;;;;;;5006003;28;20037;-74
2023/09/08 15:43:45;;;;;;;5.97;2.85;;;22.50;96.40;;;;;;5005124;28;20026;-74
2023/09/08 15:46:11;;;;;;;4.85;2.50;;;22.50;96.60;;;;;;5024035;28;20033;-75
2023/09/08 15:48:37;;;;;;;3.45;2.63;;;22.60;96.70;;;;;;5009253;28;20018;-75
2023/09/08 15:51:04;;;;;;;3.22;2.58;;;22.60;96.80;;;;;;5007537;28;20038;-75
2023/09/08 15:53:30;;;;;;;2.83;2.33;;;22.60;96.80;;;;;;5005644;28;20474;-75
2023/09/08 15:55:56;;;;;;;5.25;2.50;;;22.60;97.00;;;;;;4998754;28;20503;-75
2023/09/08 15:58:22;;;;;;;4.47;2.83;;;22.50;97.00;;;;;;5008081;28;20030;-75
2023/09/08 16:00:47;;;;;;;5.05;2.25;;;22.60;97.10;;;;;;5011189;28;20041;-75
2023/09/08 16:03:13;;;;;;;3.67;2.60;;;22.60;97.20;;;;;;5012435;28;20069;-75
2023/09/08 16:05:39;;;;;;;2.88;2.35;;;22.60;97.20;;;;;;5011851;28;20050;-75
2023/09/08 16:08:05;;;;;;;3.30;2.55;;;22.60;97.20;;;;;;5009792;28;20073;-75
2023/09/08 16:10:30;;;;;;;2.30;2.10;;;22.60;97.10;;;;;;5024673;28;20037;-76
2023/09/08 16:12:57;;;;;;;5.93;2.30;;;22.60;96.80;;;;;;5006263;28;20030;-75
2023/09/08 16:15:23;;;;;;;2.70;2.47;;;22.60;96.70;;;;;;5004193;28;21764;-75
2023/09/08 16:17:49;;;;;;;2.47;2.17;;;22.60;96.70;;;;;;5015255;28;20089;-74
2023/09/08 16:20:15;;;;;;;3.20;2.53;;;22.60;96.70;;;;;;5001814;28;20735;-75
2023/09/08 16:22:40;;;;;;;2.92;2.50;;;22.60;96.90;;;;;;5011369;28;20036;-75
2023/09/08 16:25:06;;;;;;;5.57;2.40;;;22.60;97.10;;;;;;5009117;28;20390;-75
2023/09/08 16:27:32;;;;;;;3.38;2.45;;;22.60;97.30;;;;;;5012269;28;20022;-75
2023/09/08 16:29:58;;;;;;;6.97;2.50;;;22.60;97.50;;;;;;5008282;28;20022;-75
2023/09/08 16:32:23;;;;;;;3.90;2.70;;;22.60;97.60;;;;;;5008080;28;20104;-74
2023/09/08 16:34:49;;;;;;;2.65;2.25;;;22.60;97.80;;;;;;5011964;28;20529;-74
2023/09/08 16:37:15;;;;;;;6.32;2.40;;;22.60;97.90;;;;;;5005658;28;20029;-75
2023/09/08 16:39:41;;;;;;;3.10;2.40;;;22.60;98.00;;;;;;5007275;28;20030;-75
2023/09/08 16:42:07;;;;;;;2.50;2.22;;;22.60;98.10;;;;;;5002507;28;20058;-75
2023/09/08 16:44:32;;;;;;;2.42;2.17;;;22.60;98.10;;;;;;5004452;28;20029;-75
2023/09/08 16:46:58;;;;;;;3.03;2.33;;;22.60;98.30;;;;;;5006997;28;20125;-75
2023/09/08 16:49:24;;;;;;;4.53;2.55;;;22.60;98.20;;;;;;5006944;28;20104;-75
2023/09/08 16:51:53;;;;;;;2.90;2.25;;;22.60;98.30;;;;;;5009232;28;20395;-75
2023/09/08 16:54:19;;;;;;;5.15;2.13;;;22.60;98.40;;;;;;5008861;28;20017;-75
2023/09/08 16:56:45;;;;;;;3.90;2.60;;;22.70;98.50;;;;;;5009972;28;20030;-75
2023/09/08 16:59:11;;;;;;;2.78;2.20;;;22.70;98.60;;;;;;5016208;28;20386;-75
2023/09/08 17:01:37;;;;;;;2.95;2.20;;;22.60;98.60;;;;;;5005775;28;20017;-76
2023/09/08 17:04:03;;;;;;;4.57;2.80;;;22.60;98.70;;;;;;5001621;28;20085;-75
2023/09/08 17:06:29;;;;;;;6.78;2.95;;;22.70;98.80;;;;;;5008950;28;20050;-77
2023/09/08 17:08:55;;;;;;;5.07;2.58;;;22.70;98.90;;;;;;5010597;28;20030;-76
2023/09/08 17:11:20;;;;;;;4.32;2.53;;;22.70;98.90;;;;;;5002661;28;20026;-77
2023/09/08 17:13:46;;;;;;;3.28;2.45;;;22.70;98.90;;;;;;5006582;28;20026;-76
2023/09/08 17:16:12;;;;;;;5.97;2.55;;;22.70;99.10;;;;;;5009493;28;20030;-80
2023/09/08 17:18:38;;;;;;;12.25;2.95;;;22.70;99.10;;;;;;5012736;28;20061;-78
2023/09/08 17:21:03;;;;;;;14.32;2.90;;;22.70;99.10;;;;;;5004303;28;20406;-80
2023/09/08 17:23:30;;;;;;;32.55;3.80;;;22.70;99.10;;;;;;5005287;28;20105;-80
2023/09/08 17:25:55;;;;;;;43.53;4.82;;;22.80;99.50;;;;;;5011270;28;20084;-79
2023/09/08 17:28:21;;;;;;;34.97;4.50;;;22.80;99.90;;;;;;5012570;28;20025;-80
2023/09/08 17:30:47;;;;;;;41.85;4.43;;;22.80;99.90;;;;;;5014791;28;20429;-80
2023/09/08 17:33:15;;;;;;;53.58;5.45;;;22.90;99.90;;;;;;5003092;28;20038;-80
2023/09/08 17:35:41;;;;;;;51.60;4.63;;;22.90;99.90;;;;;;5005279;28;20022;-79
2023/09/08 17:38:06;;;;;;;59.28;5.50;;;22.90;99.90;;;;;;5009962;28;20036;-80
2023/09/08 17:40:32;;;;;;;85.70;7.20;;;22.90;99.90;;;;;;5009455;28;20065;-79
2023/09/08 17:42:58;;;;;;;53.53;5.75;;;22.90;99.90;;;;;;5012514;28;20029;-80
2023/09/08 17:45:24;;;;;;;67.72;5.55;;;23.00;99.90;;;;;;5010017;28;20426;-80
2023/09/08 17:47:49;;;;;;;51.60;5.40;;;22.90;99.90;;;;;;5023027;28;20088;-79
